createdAt,value
2017-12-02T00:01:11.736Z,101703.31
2017-12-02T00:03:39.296Z,101709.87
2017-12-02T00:06:06.859Z,101708.41
2017-12-02T00:08:34.511Z,101709.48
2017-12-02T00:11:02.072Z,101709.97
2017-12-02T00:13:29.677Z,101709.06
2017-12-02T00:15:57.300Z,101716.44
2017-12-02T00:18:24.865Z,101707.59
2017-12-02T00:20:52.435Z,101710.12
2017-12-02T00:23:20.089Z,101711.77
2017-12-02T00:25:47.658Z,101716.48
2017-12-02T00:28:16.127Z,101720.11
2017-12-02T00:30:43.688Z,101712.10
2017-12-02T00:33:12.172Z,101719.19
2017-12-02T00:35:40.664Z,101720.78
2017-12-02T00:38:08.931Z,101725.86
2017-12-02T00:40:37.349Z,101722.19
2017-12-02T00:43:05.888Z,101727.06
2017-12-02T00:45:34.235Z,101730.31
2017-12-02T00:48:02.625Z,101737.51
2017-12-02T00:50:30.188Z,101739.30
2017-12-02T00:52:57.784Z,101741.52
2017-12-02T00:55:25.348Z,101738.50
2017-12-02T00:57:52.973Z,101739.12
2017-12-02T01:00:20.560Z,101740.65
2017-12-02T01:02:48.120Z,101742.56
2017-12-02T01:05:16.632Z,101744.28
2017-12-02T01:07:44.980Z,101738.19
2017-12-02T01:10:13.324Z,101745.33
2017-12-02T01:12:40.883Z,101751.03
2017-12-02T01:15:08.448Z,101751.22
2017-12-02T01:17:36.708Z,101753.33
2017-12-02T01:20:04.277Z,101756.09
2017-12-02T01:22:31.873Z,101760.85
2017-12-02T01:24:59.483Z,101760.30
2017-12-02T01:27:27.820Z,101764.48
2017-12-02T01:29:55.376Z,101766.39
2017-12-02T01:32:23.828Z,101766.98
2017-12-02T01:34:51.425Z,101772.95
2017-12-02T01:37:18.995Z,101774.30
2017-12-02T01:39:46.560Z,101783.60
2017-12-02T01:42:14.129Z,101784.75
2017-12-02T01:44:41.692Z,101789.61
2017-12-02T01:47:09.336Z,101786.31
2017-12-02T01:49:37.034Z,101798.20
2017-12-02T01:52:04.598Z,101795.08
2017-12-02T01:54:32.152Z,101795.19
2017-12-02T01:56:59.771Z,101800.69
2017-12-02T01:59:27.439Z,101805.33
2017-12-02T02:01:54.996Z,101805.96
2017-12-02T02:04:22.659Z,101807.25
2017-12-02T02:06:50.218Z,101801.92
2017-12-02T02:09:17.784Z,101810.84
2017-12-02T02:11:45.344Z,101804.73
2017-12-02T02:14:13.672Z,101805.73
2017-12-02T02:16:41.240Z,101814.66
2017-12-02T02:19:08.808Z,101807.59
2017-12-02T02:21:36.367Z,101810.52
2017-12-02T02:24:03.929Z,101810.16
2017-12-02T02:26:31.489Z,101813.58
2017-12-02T02:28:59.087Z,101816.64
2017-12-02T02:31:26.713Z,101822.83
2017-12-02T02:33:54.315Z,101825.09
2017-12-02T02:36:21.872Z,101831.45
2017-12-02T02:38:49.427Z,101832.78
2017-12-02T02:41:16.987Z,101839.31
2017-12-02T02:43:44.558Z,101845.84
2017-12-02T02:46:12.157Z,101841.91
2017-12-02T02:48:39.775Z,101844.27
2017-12-02T02:51:07.335Z,101849.54
2017-12-02T02:53:34.923Z,101842.83
2017-12-02T02:56:02.489Z,101847.98
2017-12-02T02:58:30.044Z,101854.98
2017-12-02T03:00:57.603Z,101855.41
2017-12-02T03:03:25.243Z,101858.81
2017-12-02T03:05:52.799Z,101853.70
2017-12-02T03:08:20.368Z,101853.42
2017-12-02T03:10:47.927Z,101855.37
2017-12-02T03:13:15.588Z,101857.25
2017-12-02T03:15:43.152Z,101852.39
2017-12-02T03:18:10.813Z,101856.23
2017-12-02T03:20:38.368Z,101858.92
2017-12-02T03:23:06.026Z,101866.09
2017-12-02T03:25:33.591Z,101864.63
2017-12-02T03:28:01.160Z,101870.37
2017-12-02T03:30:28.820Z,101865.81
2017-12-02T03:32:56.475Z,101869.04
2017-12-02T03:35:24.140Z,101874.95
2017-12-02T03:37:51.700Z,101875.82
2017-12-02T03:40:19.267Z,101878.89
2017-12-02T03:42:46.828Z,101883.31
2017-12-02T03:45:14.400Z,101887.08
2017-12-02T03:47:41.960Z,101884.86
2017-12-02T03:50:09.622Z,101886.91
2017-12-02T03:52:37.188Z,101888.91
2017-12-02T03:55:04.827Z,101892.45
2017-12-02T03:57:32.380Z,101893.79
2017-12-02T03:59:59.932Z,101891.81
2017-12-02T04:02:27.505Z,101899.61
2017-12-02T04:04:55.854Z,101898.85
2017-12-02T04:07:23.428Z,101899.36
2017-12-02T04:09:50.990Z,101909.52
2017-12-02T04:12:18.548Z,101904.03
2017-12-02T04:14:46.148Z,101907.95
2017-12-02T04:17:14.738Z,101908.23
2017-12-02T04:19:43.249Z,101915.78
2017-12-02T04:22:10.810Z,101917.50
2017-12-02T04:24:38.373Z,101919.70
2017-12-02T04:27:05.937Z,101924.39
2017-12-02T04:29:33.508Z,101929.21
2017-12-02T04:32:01.107Z,101922.98
2017-12-02T04:34:28.669Z,101928.52
2017-12-02T04:36:56.233Z,101928.59
2017-12-02T04:39:23.835Z,101933.69
2017-12-02T04:41:51.394Z,101936.44
2017-12-02T04:44:18.956Z,101936.32
2017-12-02T04:46:46.564Z,101938.63
2017-12-02T04:49:14.160Z,101939.88
2017-12-02T04:51:41.795Z,101946.70
2017-12-02T04:54:09.468Z,101944.68
2017-12-02T04:56:37.106Z,101947.05
2017-12-02T04:59:05.565Z,101942.37
2017-12-02T05:01:33.126Z,101941.23
2017-12-02T05:04:00.692Z,101944.51
2017-12-02T05:06:28.251Z,101945.71
2017-12-02T05:08:55.844Z,101949.81
2017-12-02T05:11:23.403Z,101945.92
2017-12-02T05:13:51.816Z,101952.37
2017-12-02T05:16:19.457Z,101950.17
2017-12-02T05:18:47.111Z,101953.30
2017-12-02T05:21:14.674Z,101949.47
2017-12-02T05:23:42.240Z,101956.62
2017-12-02T05:26:09.840Z,101954.76
2017-12-02T05:28:37.400Z,101955.66
2017-12-02T05:31:04.963Z,101959.27
2017-12-02T05:33:32.528Z,101966.86
2017-12-02T05:36:00.140Z,101956.44
2017-12-02T05:38:27.701Z,101963.27
2017-12-02T05:40:55.267Z,101956.77
2017-12-02T05:43:22.826Z,101961.00
2017-12-02T05:45:50.430Z,101961.90
2017-12-02T05:48:17.988Z,101960.80
2017-12-02T05:50:45.606Z,101971.95
2017-12-02T05:53:13.171Z,101974.36
2017-12-02T05:55:40.736Z,101973.39
2017-12-02T05:58:08.400Z,101977.39
2017-12-02T06:00:35.975Z,101973.41
2017-12-02T06:03:03.541Z,101980.44
2017-12-02T06:05:31.116Z,101982.00
2017-12-02T06:07:58.744Z,101986.00
2017-12-02T06:10:26.309Z,101985.35
2017-12-02T06:12:53.959Z,101991.56
2017-12-02T06:15:21.523Z,101987.94
2017-12-02T06:17:49.083Z,101985.63
2017-12-02T06:20:17.360Z,101985.24
2017-12-02T06:22:44.938Z,101993.22
2017-12-02T06:25:12.502Z,101991.31
2017-12-02T06:27:40.070Z,101990.47
2017-12-02T06:30:07.708Z,101991.81
2017-12-02T06:32:35.269Z,101991.56
2017-12-02T06:35:02.828Z,101996.65
2017-12-02T06:37:30.483Z,101997.36
2017-12-02T06:39:58.051Z,101997.94
2017-12-02T06:42:25.628Z,102001.72
2017-12-02T06:44:53.272Z,102005.70
2017-12-02T06:47:20.839Z,102004.75
2017-12-02T06:49:49.423Z,102007.13
2017-12-02T06:52:16.996Z,102009.90
2017-12-02T06:54:44.571Z,102012.98
2017-12-02T06:57:12.135Z,102019.22
2017-12-02T06:59:39.706Z,102015.92
2017-12-02T07:02:07.305Z,102017.65
2017-12-02T07:04:34.868Z,102022.19
2017-12-02T07:07:02.444Z,102018.49
2017-12-02T07:09:30.009Z,102029.02
2017-12-02T07:11:57.577Z,102025.23
2017-12-02T07:14:25.150Z,102030.98
2017-12-02T07:16:52.783Z,102039.23
2017-12-02T07:19:20.352Z,102039.87
2017-12-02T07:21:48.816Z,102035.95
2017-12-02T07:24:17.116Z,102047.84
2017-12-02T07:26:45.452Z,102049.94
2017-12-02T07:29:13.873Z,102048.03
2017-12-02T07:31:41.438Z,102054.92
2017-12-02T07:34:09.090Z,102051.97
2017-12-02T07:36:36.655Z,102046.79
2017-12-02T07:39:04.232Z,102057.19
2017-12-02T07:41:31.796Z,102057.59
2017-12-02T07:43:59.360Z,102059.49
2017-12-02T07:46:27.973Z,102059.73
2017-12-02T07:48:55.580Z,102060.56
2017-12-02T07:51:23.213Z,102062.04
2017-12-02T07:53:50.797Z,102062.12
2017-12-02T07:56:19.188Z,102070.65
2017-12-02T07:58:47.576Z,102067.64
2017-12-02T08:01:15.152Z,102072.98
2017-12-02T08:03:42.712Z,102071.20
2017-12-02T08:06:10.352Z,102066.34
2017-12-02T08:08:39.645Z,102067.09
2017-12-02T08:11:07.218Z,102071.53
2017-12-02T08:13:34.928Z,102070.70
2017-12-02T08:16:03.444Z,102070.44
2017-12-02T08:18:31.011Z,102076.38
2017-12-02T08:20:58.629Z,102081.44
2017-12-02T08:23:27.007Z,102074.42
2017-12-02T08:25:55.347Z,102072.33
2017-12-02T08:28:23.683Z,102076.11
2017-12-02T08:30:51.283Z,102080.42
2017-12-02T08:33:18.835Z,102090.78
2017-12-02T08:35:46.406Z,102087.59
2017-12-02T08:38:13.964Z,102098.25
2017-12-02T08:40:41.532Z,102100.75
2017-12-02T08:43:09.128Z,102107.75
2017-12-02T08:45:36.688Z,102102.24
2017-12-02T08:48:04.292Z,102105.70
2017-12-02T08:50:31.848Z,102111.88
2017-12-02T08:52:59.424Z,102109.73
2017-12-02T08:55:26.989Z,102108.34
2017-12-02T08:57:54.603Z,102117.34
2017-12-02T09:00:22.939Z,102118.11
2017-12-02T09:02:50.596Z,102119.60
2017-12-02T09:05:18.252Z,102124.20
2017-12-02T09:07:45.815Z,102122.24
2017-12-02T09:10:13.380Z,102119.48
2017-12-02T09:12:41.036Z,102121.88
2017-12-02T09:15:08.592Z,102129.55
2017-12-02T09:17:36.949Z,102137.77
2017-12-02T09:20:05.375Z,102140.89
2017-12-02T09:22:32.950Z,102141.77
2017-12-02T09:25:00.587Z,102144.98
2017-12-02T09:27:28.197Z,102138.05
2017-12-02T09:29:55.758Z,102133.98
2017-12-02T09:32:23.327Z,102150.41
2017-12-02T09:34:50.893Z,102146.84
2017-12-02T09:37:18.459Z,102144.49
2017-12-02T09:39:46.048Z,102138.94
2017-12-02T09:42:14.506Z,102148.55
2017-12-02T09:44:42.801Z,102144.36
2017-12-02T09:47:10.400Z,102146.03
2017-12-02T09:49:38.868Z,102144.91
2017-12-02T09:52:06.516Z,102141.77
2017-12-02T09:54:34.141Z,102140.71
2017-12-02T09:57:01.748Z,102143.12
2017-12-02T09:59:29.313Z,102141.21
2017-12-02T10:01:56.884Z,102144.35
2017-12-02T10:04:24.446Z,102142.50
2017-12-02T10:06:52.004Z,102138.56
2017-12-02T10:09:19.645Z,102135.16
2017-12-02T10:11:47.210Z,102137.72
2017-12-02T10:14:14.777Z,102139.05
2017-12-02T10:16:42.408Z,102134.97
2017-12-02T10:19:09.969Z,102132.87
2017-12-02T10:21:37.533Z,102141.75
2017-12-02T10:24:05.092Z,102138.46
2017-12-02T10:26:32.673Z,102137.20
2017-12-02T10:29:00.239Z,102143.20
2017-12-02T10:31:27.895Z,102135.37
2017-12-02T10:33:56.807Z,102141.03
2017-12-02T10:36:25.365Z,102128.46
2017-12-02T10:38:52.959Z,102131.56
2017-12-02T10:41:20.595Z,102123.65
2017-12-02T10:43:48.188Z,102126.05
2017-12-02T10:46:15.820Z,102120.98
2017-12-02T10:48:43.424Z,102120.84
2017-12-02T10:51:11.043Z,102118.63
2017-12-02T10:53:38.648Z,102115.95
2017-12-02T10:56:06.443Z,102112.34
2017-12-02T10:58:34.056Z,102113.33
2017-12-02T11:01:01.620Z,102104.41
2017-12-02T11:03:29.251Z,102109.71
2017-12-02T11:05:56.816Z,102109.28
2017-12-02T11:08:24.375Z,102111.22
2017-12-02T11:10:52.036Z,102116.94
2017-12-02T11:13:20.464Z,102122.84
2017-12-02T11:15:48.797Z,102121.81
2017-12-02T11:18:17.324Z,102128.71
2017-12-02T11:20:44.982Z,102124.73
2017-12-02T11:23:12.551Z,102128.20
2017-12-02T11:25:40.121Z,102125.01
2017-12-02T11:28:07.735Z,102127.06
2017-12-02T11:30:35.402Z,102123.90
2017-12-02T11:33:03.984Z,102114.74
2017-12-02T11:35:31.639Z,102116.80
2017-12-02T11:37:59.208Z,102119.09
2017-12-02T11:40:27.703Z,102126.75
2017-12-02T11:42:56.062Z,102127.81
2017-12-02T11:45:24.438Z,102128.30
2017-12-02T11:47:52.832Z,102125.16
2017-12-02T11:50:20.370Z,102127.89
2017-12-02T11:52:48.008Z,102132.25
2017-12-02T11:55:15.568Z,102129.11
2017-12-02T11:57:44.036Z,102125.03
2017-12-02T12:00:12.336Z,102129.84
2017-12-02T12:02:40.745Z,102129.61
2017-12-02T12:05:08.417Z,102136.14
2017-12-02T12:07:35.984Z,102126.70
2017-12-02T12:10:03.593Z,102126.89
2017-12-02T12:12:31.156Z,102123.36
2017-12-02T12:14:59.533Z,102128.47
2017-12-02T12:17:27.131Z,102122.13
2017-12-02T12:19:54.724Z,102124.30
2017-12-02T12:22:22.353Z,102125.16
2017-12-02T12:24:50.740Z,102118.95
2017-12-02T12:27:18.341Z,102116.19
2017-12-02T12:29:46.719Z,102116.68
2017-12-02T12:32:15.092Z,102104.59
2017-12-02T12:34:43.540Z,102110.78
2017-12-02T12:37:11.103Z,102110.84
2017-12-02T12:39:38.704Z,102110.66
2017-12-02T12:42:06.262Z,102112.38
2017-12-02T12:44:33.860Z,102106.05
2017-12-02T12:47:01.445Z,102116.48
2017-12-02T12:49:29.015Z,102120.49
2017-12-02T12:51:56.611Z,102114.84
2017-12-02T12:54:24.204Z,102112.27
2017-12-02T12:56:51.799Z,102115.92
2017-12-02T12:59:19.355Z,102114.68
2017-12-02T13:01:46.920Z,102116.42
2017-12-02T13:04:14.490Z,102114.55
2017-12-02T13:06:42.055Z,102114.18
2017-12-02T13:09:09.694Z,102112.06
2017-12-02T13:11:38.183Z,102115.25
2017-12-02T13:14:05.748Z,102110.83
2017-12-02T13:16:34.216Z,102109.59
2017-12-02T13:19:01.780Z,102114.59
2017-12-02T13:21:29.339Z,102109.72
2017-12-02T13:23:56.964Z,102112.94
2017-12-02T13:26:24.561Z,102111.00
2017-12-02T13:28:52.122Z,102110.42
2017-12-02T13:31:19.684Z,102109.16
2017-12-02T13:33:47.275Z,102115.61
2017-12-02T13:36:14.832Z,102112.58
2017-12-02T13:38:42.392Z,102106.78
2017-12-02T13:41:09.947Z,102102.52
2017-12-02T13:43:37.510Z,102112.46
2017-12-02T13:46:05.150Z,102108.19
2017-12-02T13:48:33.528Z,102105.78
2017-12-02T13:51:01.912Z,102113.44
2017-12-02T13:53:29.573Z,102107.83
2017-12-02T13:55:57.196Z,102112.39
2017-12-02T13:58:24.768Z,102110.90
2017-12-02T14:00:52.331Z,102102.03
2017-12-02T14:03:19.887Z,102109.50
2017-12-02T14:05:47.481Z,102109.86
2017-12-02T14:08:15.953Z,102108.01
2017-12-02T14:10:44.412Z,102114.91
2017-12-02T14:13:12.676Z,102107.89
2017-12-02T14:15:40.271Z,102108.55
2017-12-02T14:18:07.833Z,102116.72
2017-12-02T14:20:35.395Z,102114.75
2017-12-02T14:23:03.860Z,102113.50
2017-12-02T14:25:32.209Z,102116.20
2017-12-02T14:27:59.797Z,102119.88
2017-12-02T14:30:27.384Z,102118.52
2017-12-02T14:32:54.948Z,102118.31
2017-12-02T14:35:22.503Z,102119.28
2017-12-02T14:37:50.960Z,102120.10
2017-12-02T14:40:20.317Z,102115.05
2017-12-02T14:42:47.889Z,102122.46
2017-12-02T14:45:15.512Z,102119.00
2017-12-02T14:47:43.190Z,102127.41
2017-12-02T14:50:10.755Z,102125.05
2017-12-02T14:52:38.316Z,102130.48
2017-12-02T14:55:06.804Z,102139.27
2017-12-02T14:57:34.412Z,102142.63
2017-12-02T15:00:01.977Z,102152.61
2017-12-02T15:02:31.721Z,102144.71
2017-12-02T15:04:59.350Z,102146.08
2017-12-02T15:07:26.909Z,102151.86
2017-12-02T15:09:54.477Z,102156.34
2017-12-02T15:12:22.887Z,102146.24
2017-12-02T15:14:50.457Z,102156.45
2017-12-02T15:17:18.921Z,102162.22
2017-12-02T15:19:47.160Z,102160.02
2017-12-02T15:22:15.634Z,102163.51
2017-12-02T15:24:43.995Z,102153.04
2017-12-02T15:27:12.124Z,102159.03
2017-12-02T15:29:39.690Z,102164.59
2017-12-02T15:32:07.279Z,102157.52
2017-12-02T15:34:35.832Z,102160.77
2017-12-02T15:37:04.220Z,102161.63
2017-12-02T15:39:32.054Z,102166.63
2017-12-02T15:42:00.649Z,102162.43
2017-12-02T15:44:29.018Z,102160.97
2017-12-02T15:46:56.579Z,102163.19
2017-12-02T15:49:24.885Z,102169.70
2017-12-02T15:51:52.457Z,102165.41
2017-12-02T15:54:20.964Z,102170.52
2017-12-02T15:56:48.524Z,102173.37
2017-12-02T15:59:16.149Z,102173.09
2017-12-02T16:01:43.714Z,102176.70
2017-12-02T16:04:12.054Z,102179.70
2017-12-02T16:06:39.653Z,102171.42
2017-12-02T16:09:08.168Z,102172.09
2017-12-02T16:11:36.495Z,102180.86
2017-12-02T16:14:04.844Z,102183.97
2017-12-02T16:16:32.450Z,102181.79
2017-12-02T16:19:00.124Z,102185.68
2017-12-02T16:21:27.781Z,102191.34
2017-12-02T16:23:55.443Z,102185.41
2017-12-02T16:26:23.107Z,102188.86
2017-12-02T16:28:50.672Z,102191.31
2017-12-02T16:31:18.327Z,102193.56
2017-12-02T16:33:45.892Z,102186.42
2017-12-02T16:36:13.453Z,102185.89
2017-12-02T16:38:41.015Z,102192.84
2017-12-02T16:41:08.591Z,102202.14
2017-12-02T16:43:37.081Z,102199.89
2017-12-02T16:46:04.640Z,102204.92
2017-12-02T16:48:33.096Z,102201.89
2017-12-02T16:51:00.659Z,102200.46
2017-12-02T16:53:28.221Z,102203.81
2017-12-02T16:55:55.787Z,102204.34
2017-12-02T16:58:23.356Z,102199.36
2017-12-02T17:00:50.963Z,102199.95
2017-12-02T17:03:18.670Z,102206.49
2017-12-02T17:05:46.257Z,102208.80
2017-12-02T17:08:13.823Z,102209.37
2017-12-02T17:10:41.444Z,102209.23
2017-12-02T17:13:09.000Z,102202.38
2017-12-02T17:15:36.668Z,102208.94
2017-12-02T17:18:04.228Z,102210.89
2017-12-02T17:20:31.818Z,102205.63
2017-12-02T17:22:59.375Z,102208.12
2017-12-02T17:25:27.020Z,102208.56
2017-12-02T17:27:54.679Z,102202.38
2017-12-02T17:30:22.307Z,102208.80
2017-12-02T17:32:49.866Z,102203.81
2017-12-02T17:35:17.430Z,102205.20
2017-12-02T17:37:44.987Z,102198.50
2017-12-02T17:40:12.555Z,102199.13
2017-12-02T17:42:40.153Z,102196.06
2017-12-02T17:45:07.725Z,102192.95
2017-12-02T17:47:35.337Z,102198.88
2017-12-02T17:50:03.017Z,102193.00
2017-12-02T17:52:30.691Z,102193.18
2017-12-02T17:54:58.249Z,102197.25
2017-12-02T17:57:26.029Z,102199.88
2017-12-02T17:59:53.653Z,102199.66
2017-12-02T18:02:21.258Z,102202.52
2017-12-02T18:04:48.910Z,102203.48
2017-12-02T18:07:16.469Z,102196.16
2017-12-02T18:09:44.101Z,102192.59
2017-12-02T18:12:11.664Z,102199.27
2017-12-02T18:14:39.215Z,102196.09
2017-12-02T18:17:06.777Z,102191.36
2017-12-02T18:19:34.340Z,102188.68
2017-12-02T18:22:01.949Z,102187.43
2017-12-02T18:24:29.585Z,102187.23
2017-12-02T18:26:57.151Z,102188.20
2017-12-02T18:29:24.706Z,102193.13
2017-12-02T18:31:52.276Z,102189.30
2017-12-02T18:34:20.732Z,102192.06
2017-12-02T18:36:48.288Z,102197.73
2017-12-02T18:39:16.909Z,102197.30
2017-12-02T18:41:45.295Z,102199.02
2017-12-02T18:44:12.952Z,102194.52
2017-12-02T18:46:41.461Z,102198.07
2017-12-02T18:49:09.011Z,102194.77
2017-12-02T18:51:36.621Z,102192.66
2017-12-02T18:54:04.177Z,102197.97
2017-12-02T18:56:31.738Z,102200.41
2017-12-02T18:58:59.300Z,102197.73
2017-12-02T19:01:26.864Z,102192.90
2017-12-02T19:03:55.278Z,102195.05
2017-12-02T19:06:22.842Z,102196.88
2017-12-02T19:08:50.465Z,102194.67
2017-12-02T19:11:18.061Z,102196.39
2017-12-02T19:13:45.824Z,102201.89
2017-12-02T19:16:13.544Z,102201.27
2017-12-02T19:18:41.118Z,102200.64
2017-12-02T19:21:09.000Z,102203.72
2017-12-02T19:23:36.588Z,102203.67
2017-12-02T19:26:04.139Z,102203.29
2017-12-02T19:28:31.735Z,102199.80
2017-12-02T19:30:59.335Z,102199.02
2017-12-02T19:33:27.829Z,102202.09
2017-12-02T19:35:55.380Z,102200.02
2017-12-02T19:38:22.937Z,102199.07
2017-12-02T19:40:50.548Z,102197.78
2017-12-02T19:43:18.162Z,102195.34
2017-12-02T19:45:45.724Z,102204.39
2017-12-02T19:48:13.324Z,102205.64
2017-12-02T19:50:43.594Z,102207.94
2017-12-02T19:53:13.829Z,102201.14
2017-12-02T19:55:44.944Z,102201.80
2017-12-02T19:58:12.667Z,102205.53
2017-12-02T20:00:42.474Z,102203.34
2017-12-02T20:03:11.982Z,102199.02
2017-12-02T20:05:39.602Z,102192.02
2017-12-02T20:08:07.898Z,102189.66
2017-12-02T20:10:36.357Z,102189.33
2017-12-02T20:13:04.016Z,102187.43
2017-12-02T20:15:31.608Z,102182.32
2017-12-02T20:18:00.104Z,102179.62
2017-12-02T20:20:27.752Z,102180.73
2017-12-02T20:22:55.321Z,102176.65
2017-12-02T20:25:22.882Z,102173.10
2017-12-02T20:27:51.357Z,102171.86
2017-12-02T20:30:19.777Z,102174.62
2017-12-02T20:32:48.351Z,102174.16
2017-12-02T20:35:16.685Z,102175.79
2017-12-02T20:37:44.296Z,102173.72
2017-12-02T20:40:11.860Z,102175.22
2017-12-02T20:42:39.412Z,102174.88
2017-12-02T20:45:07.085Z,102176.52
2017-12-02T20:47:34.653Z,102175.32
2017-12-02T20:50:02.252Z,102173.30
2017-12-02T20:52:29.804Z,102171.97
2017-12-02T20:54:57.404Z,102174.20
2017-12-02T20:57:25.743Z,102169.90
2017-12-02T20:59:53.300Z,102171.33
2017-12-02T21:02:20.861Z,102163.14
2017-12-02T21:04:48.420Z,102168.55
2017-12-02T21:07:16.049Z,102166.27
2017-12-02T21:09:43.608Z,102165.16
2017-12-02T21:12:12.024Z,102163.29
2017-12-02T21:14:39.652Z,102165.48
2017-12-02T21:17:08.128Z,102167.64
2017-12-02T21:19:35.792Z,102165.92
2017-12-02T21:22:03.461Z,102168.46
2017-12-02T21:24:31.836Z,102166.72
2017-12-02T21:26:59.423Z,102163.91
2017-12-02T21:29:27.789Z,102156.81
2017-12-02T21:31:56.364Z,102160.98
2017-12-02T21:34:24.821Z,102162.67
2017-12-02T21:36:53.328Z,102164.30
2017-12-02T21:39:21.911Z,102163.88
2017-12-02T21:41:50.380Z,102162.67
2017-12-02T21:44:18.716Z,102164.18
2017-12-02T21:46:46.336Z,102155.65
2017-12-02T21:49:14.683Z,102158.63
2017-12-02T21:51:42.243Z,102156.94
2017-12-02T21:54:09.803Z,102162.15
2017-12-02T21:56:38.180Z,102159.44
2017-12-02T21:59:05.784Z,102163.34
2017-12-02T22:01:33.440Z,102162.87
2017-12-02T22:04:01.047Z,102164.16
2017-12-02T22:06:28.656Z,102164.67
2017-12-02T22:08:56.912Z,102165.69
2017-12-02T22:11:24.496Z,102159.63
2017-12-02T22:13:52.088Z,102157.44
2017-12-02T22:16:19.690Z,102155.95
2017-12-02T22:18:48.168Z,102165.58
2017-12-02T22:21:16.238Z,102162.56
2017-12-02T22:23:43.798Z,102161.58
2017-12-02T22:26:11.361Z,102160.25
2017-12-02T22:28:38.956Z,102164.20
2017-12-02T22:31:06.524Z,102165.52
2017-12-02T22:33:34.120Z,102173.98
2017-12-02T22:36:01.680Z,102163.83
2017-12-02T22:38:29.304Z,102160.17
2017-12-02T22:40:56.870Z,102162.32
2017-12-02T22:43:24.464Z,102160.78
2017-12-02T22:45:52.052Z,102156.69
2017-12-02T22:48:20.548Z,102164.02
2017-12-02T22:50:49.944Z,102168.39
2017-12-02T22:53:17.661Z,102161.14
2017-12-02T22:55:45.251Z,102155.16
2017-12-02T22:58:12.824Z,102161.03
2017-12-02T23:00:40.384Z,102156.97
2017-12-02T23:03:07.952Z,102155.27
2017-12-02T23:05:35.513Z,102154.05
2017-12-02T23:08:03.171Z,102159.18
2017-12-02T23:10:30.734Z,102157.84
2017-12-02T23:12:58.290Z,102159.14
2017-12-02T23:15:26.785Z,102160.16
2017-12-02T23:17:54.377Z,102159.27
2017-12-02T23:20:21.941Z,102159.78
2017-12-02T23:22:49.514Z,102160.61
2017-12-02T23:25:17.076Z,102153.84
2017-12-02T23:27:44.704Z,102156.06
2017-12-02T23:30:13.175Z,102150.94
2017-12-02T23:32:40.740Z,102144.23
2017-12-02T23:35:08.295Z,102151.20
2017-12-02T23:37:35.852Z,102142.52
2017-12-02T23:40:03.413Z,102142.94
2017-12-02T23:42:30.971Z,102140.62
2017-12-02T23:44:58.540Z,102149.75
2017-12-02T23:47:26.100Z,102145.69
2017-12-02T23:49:53.659Z,102142.37
2017-12-02T23:52:21.301Z,102141.59
2017-12-02T23:54:48.862Z,102141.78
2017-12-02T23:57:16.421Z,102140.65
2017-12-02T23:59:44.919Z,102140.84
